createdAt,value
2022-08-26T00:02:05.661Z,11.35
2022-08-26T00:04:34.473Z,11.90
2022-08-26T00:07:02.335Z,12.50
2022-08-26T00:09:30.155Z,12.13
2022-08-26T00:11:59.670Z,11.18
2022-08-26T00:14:31.189Z,12.65
2022-08-26T00:16:59.960Z,12.90
2022-08-26T00:19:27.883Z,11.15
2022-08-26T00:21:56.259Z,12.02
2022-08-26T00:24:24.795Z,12.63
2022-08-26T00:26:53.481Z,12.32
2022-08-26T00:29:22.644Z,11.85
2022-08-26T00:31:50.611Z,11.15
2022-08-26T00:34:19.553Z,11.57
2022-08-26T00:36:47.820Z,12.93
2022-08-26T00:39:20.335Z,11.43
2022-08-26T00:41:48.579Z,11.00
2022-08-26T00:44:16.540Z,11.65
2022-08-26T00:46:47.279Z,12.73
2022-08-26T00:49:16.832Z,11.65
2022-08-26T00:51:47.058Z,11.93
2022-08-26T00:54:15.912Z,12.20
2022-08-26T00:56:47.109Z,11.20
2022-08-26T00:59:18.140Z,10.82
2022-08-26T01:01:47.698Z,11.43
2022-08-26T01:04:19.030Z,12.32
2022-08-26T01:06:47.801Z,11.10
2022-08-26T01:09:16.241Z,11.77
2022-08-26T01:11:44.385Z,11.10
2022-08-26T01:14:14.577Z,11.40
2022-08-26T01:16:44.269Z,12.48
2022-08-26T01:19:16.776Z,12.77
2022-08-26T01:21:46.669Z,11.93
2022-08-26T01:24:17.996Z,12.02
2022-08-26T01:26:46.427Z,11.15
2022-08-26T01:29:15.962Z,11.20
2022-08-26T01:31:49.583Z,11.30
2022-08-26T01:34:19.031Z,12.07
2022-08-26T01:36:51.414Z,11.88
2022-08-26T01:39:21.015Z,13.57
2022-08-26T01:41:53.522Z,11.90
2022-08-26T01:44:23.527Z,12.98
2022-08-26T01:46:52.457Z,13.50
2022-08-26T01:49:21.841Z,12.43
2022-08-26T01:51:51.506Z,12.75
2022-08-26T01:54:23.010Z,13.25
2022-08-26T01:56:51.528Z,13.85
2022-08-26T01:59:20.568Z,11.75
2022-08-26T02:01:48.856Z,12.48
2022-08-26T02:04:18.350Z,12.98
2022-08-26T02:06:47.002Z,13.20
2022-08-26T02:09:15.612Z,12.27
2022-08-26T02:11:45.167Z,12.85
2022-08-26T02:14:14.887Z,11.18
2022-08-26T02:16:43.737Z,12.02
2022-08-26T02:19:16.862Z,11.23
2022-08-26T02:21:51.047Z,12.30
2022-08-26T02:24:21.085Z,13.48
2022-08-26T02:26:50.609Z,11.85
2022-08-26T02:29:21.486Z,13.00
2022-08-26T02:31:49.453Z,10.75
2022-08-26T02:34:21.139Z,13.07
2022-08-26T02:36:49.349Z,11.68
2022-08-26T02:39:22.071Z,13.77
2022-08-26T02:41:51.599Z,12.57
2022-08-26T02:44:20.071Z,13.23
2022-08-26T02:46:48.144Z,12.20
2022-08-26T02:49:17.347Z,11.80
2022-08-26T02:51:45.220Z,12.88
2022-08-26T02:54:13.448Z,13.40
2022-08-26T02:56:41.258Z,13.13
2022-08-26T02:59:12.301Z,13.55
2022-08-26T03:01:40.500Z,14.00
2022-08-26T03:04:10.919Z,13.68
2022-08-26T03:06:41.474Z,12.43
2022-08-26T03:09:10.035Z,13.20
2022-08-26T03:11:43.807Z,15.02
2022-08-26T03:14:13.481Z,14.55
2022-08-26T03:16:41.738Z,13.45
2022-08-26T03:19:10.399Z,14.38
2022-08-26T03:21:39.029Z,13.13
2022-08-26T03:24:06.998Z,13.73
2022-08-26T03:26:34.863Z,12.30
2022-08-26T03:29:22.799Z,14.00
2022-08-26T03:31:51.931Z,14.27
2022-08-26T03:34:20.836Z,14.90
2022-08-26T03:36:50.279Z,14.10
2022-08-26T03:39:18.346Z,14.60
2022-08-26T03:41:46.132Z,15.27
2022-08-26T03:44:14.757Z,14.77
2022-08-26T03:46:42.624Z,14.55
2022-08-26T03:49:14.082Z,14.73
2022-08-26T03:51:43.111Z,14.40
2022-08-26T03:54:12.932Z,14.63
2022-08-26T03:56:40.836Z,15.25
2022-08-26T03:59:09.663Z,16.70
2022-08-26T04:01:37.915Z,15.88
2022-08-26T04:04:06.575Z,14.80
2022-08-26T04:06:38.178Z,15.38
2022-08-26T04:09:07.450Z,15.65
2022-08-26T04:11:38.695Z,15.57
2022-08-26T04:14:08.586Z,13.77
2022-08-26T04:16:37.088Z,13.68
2022-08-26T04:19:04.934Z,15.43
2022-08-26T04:21:33.460Z,15.23
2022-08-26T04:24:03.494Z,17.13
2022-08-26T04:26:39.487Z,17.52
2022-08-26T04:29:11.934Z,14.93
2022-08-26T04:31:39.839Z,15.57
2022-08-26T04:34:08.385Z,14.75
2022-08-26T04:36:38.971Z,14.68
2022-08-26T04:39:09.313Z,15.68
2022-08-26T04:41:37.715Z,15.70
2022-08-26T04:44:07.210Z,15.98
2022-08-26T04:46:35.299Z,16.95
2022-08-26T04:49:09.366Z,14.73
2022-08-26T04:51:37.413Z,14.90
2022-08-26T04:54:08.211Z,14.68
2022-08-26T04:56:37.835Z,15.60
2022-08-26T04:59:06.179Z,13.43
2022-08-26T05:01:35.110Z,14.77
2022-08-26T05:04:08.219Z,16.55
2022-08-26T05:06:36.853Z,15.82
2022-08-26T05:09:05.308Z,13.98
2022-08-26T05:11:36.414Z,15.18
2022-08-26T05:14:05.108Z,16.38
2022-08-26T05:16:33.670Z,14.80
2022-08-26T05:19:01.762Z,15.35
2022-08-26T05:21:30.016Z,16.15
2022-08-26T05:23:57.857Z,16.83
2022-08-26T05:26:29.216Z,15.77
2022-08-26T05:28:58.775Z,13.30
2022-08-26T05:31:28.053Z,14.68
2022-08-26T05:33:57.796Z,14.50
2022-08-26T05:36:27.072Z,14.60
2022-08-26T05:38:55.063Z,15.10
2022-08-26T05:41:25.107Z,14.40
2022-08-26T05:43:54.207Z,14.75
2022-08-26T05:46:23.534Z,16.50
2022-08-26T05:48:53.577Z,14.68
2022-08-26T05:51:26.189Z,15.65
2022-08-26T05:53:54.781Z,16.73
2022-08-26T05:56:24.778Z,15.48
2022-08-26T05:58:53.132Z,15.27
2022-08-26T06:01:23.668Z,14.95
2022-08-26T06:03:54.995Z,14.05
2022-08-26T06:06:27.449Z,15.13
2022-08-26T06:08:57.668Z,15.30
2022-08-26T06:11:26.616Z,15.60
2022-08-26T06:13:54.880Z,15.23
2022-08-26T06:16:24.499Z,15.73
2022-08-26T06:18:55.395Z,13.82
2022-08-26T06:21:27.521Z,14.98
2022-08-26T06:24:15.327Z,15.98
2022-08-26T06:26:44.121Z,14.88
2022-08-26T06:29:24.706Z,14.02
2022-08-26T06:31:53.203Z,15.40
2022-08-26T06:34:22.710Z,14.30
2022-08-26T06:36:54.506Z,14.70
2022-08-26T06:39:22.741Z,14.65
2022-08-26T06:41:51.713Z,14.73
2022-08-26T06:44:20.246Z,14.43
2022-08-26T06:46:50.498Z,14.60
2022-08-26T06:49:25.631Z,14.25
2022-08-26T06:51:58.435Z,15.38
2022-08-26T06:54:28.862Z,13.68
2022-08-26T06:56:57.672Z,14.48
2022-08-26T06:59:25.981Z,14.98
2022-08-26T07:01:55.046Z,14.43
2022-08-26T07:04:24.875Z,15.27
2022-08-26T07:06:57.464Z,14.43
2022-08-26T07:09:27.380Z,14.55
2022-08-26T07:11:56.205Z,14.60
2022-08-26T07:14:25.250Z,13.70
2022-08-26T07:16:54.513Z,13.30
2022-08-26T07:19:29.950Z,13.88
2022-08-26T07:22:02.254Z,13.63
2022-08-26T07:24:32.255Z,14.27
2022-08-26T07:27:01.074Z,15.25
2022-08-26T07:29:29.858Z,14.85
2022-08-26T07:31:57.794Z,13.93
2022-08-26T07:34:26.276Z,16.00
2022-08-26T07:36:55.290Z,13.85
2022-08-26T07:39:25.031Z,15.35
2022-08-26T07:41:52.944Z,13.52
2022-08-26T07:44:21.030Z,12.60
2022-08-26T07:46:52.308Z,14.35
2022-08-26T07:49:21.698Z,12.63
2022-08-26T07:51:49.808Z,13.88
2022-08-26T07:54:18.739Z,14.32
2022-08-26T07:56:49.295Z,13.38
2022-08-26T07:59:20.510Z,14.20
2022-08-26T08:01:50.782Z,14.07
2022-08-26T08:04:25.506Z,13.65
2022-08-26T08:06:54.427Z,13.02
2022-08-26T08:09:22.614Z,13.43
2022-08-26T08:11:51.987Z,11.95
2022-08-26T08:14:22.351Z,12.70
2022-08-26T08:16:51.209Z,13.10
2022-08-26T08:19:23.851Z,12.80
2022-08-26T08:21:51.806Z,13.90
2022-08-26T08:24:20.088Z,13.57
2022-08-26T08:26:48.550Z,12.80
2022-08-26T08:29:17.672Z,13.15
2022-08-26T08:31:56.514Z,11.77
2022-08-26T08:34:27.203Z,11.32
2022-08-26T08:36:55.461Z,13.70
2022-08-26T08:39:23.632Z,11.73
2022-08-26T08:41:56.491Z,12.85
2022-08-26T08:47:02.883Z,13.00
2022-08-26T08:49:31.105Z,12.60
2022-08-26T08:52:01.286Z,12.15
2022-08-26T08:54:30.018Z,12.77
2022-08-26T08:57:03.094Z,12.70
2022-08-26T08:59:34.851Z,12.30
2022-08-26T09:02:09.820Z,13.02
2022-08-26T09:04:58.761Z,11.57
2022-08-26T09:07:28.350Z,13.77
2022-08-26T09:09:59.733Z,12.07
2022-08-26T09:12:30.095Z,13.52
2022-08-26T09:15:06.032Z,12.75
2022-08-26T09:17:40.606Z,10.77
2022-08-26T09:20:13.206Z,10.35
2022-08-26T09:22:44.131Z,11.63
2022-08-26T09:25:13.355Z,11.63
2022-08-26T09:27:42.955Z,9.93
2022-08-26T09:30:14.385Z,10.07
2022-08-26T09:32:42.497Z,11.77
2022-08-26T09:35:12.162Z,11.00
2022-08-26T09:37:42.548Z,10.88
2022-08-26T09:40:24.375Z,10.82
2022-08-26T09:43:09.098Z,11.02
2022-08-26T09:45:39.676Z,9.77
2022-08-26T09:48:08.075Z,10.65
2022-08-26T09:50:38.051Z,9.43
2022-08-26T09:53:09.536Z,9.77
2022-08-26T09:55:42.098Z,10.60
2022-08-26T09:58:13.581Z,10.13
2022-08-26T10:00:44.190Z,10.00
2022-08-26T10:03:14.127Z,9.52
2022-08-26T10:05:48.174Z,8.88
2022-08-26T10:08:18.387Z,10.75
2022-08-26T10:10:48.851Z,9.15
2022-08-26T10:13:18.608Z,10.35
2022-08-26T10:15:56.840Z,9.40
2022-08-26T10:18:34.262Z,9.85
2022-08-26T10:21:05.130Z,10.02
2022-08-26T10:23:37.754Z,9.73
2022-08-26T10:26:09.707Z,9.63
2022-08-26T10:28:40.479Z,8.95
2022-08-26T10:31:12.118Z,8.90
2022-08-26T10:33:40.329Z,8.88
2022-08-26T10:36:34.107Z,10.98
2022-08-26T10:39:09.961Z,9.65
2022-08-26T10:41:44.893Z,7.90
2022-08-26T10:44:16.165Z,8.15
2022-08-26T10:46:48.489Z,8.27
2022-08-26T10:49:18.188Z,9.73
2022-08-26T10:51:51.294Z,7.25
2022-08-26T10:54:24.177Z,8.48
2022-08-26T10:56:56.792Z,8.37
2022-08-26T10:59:29.895Z,7.83
2022-08-26T11:02:04.440Z,8.02
2022-08-26T11:04:39.099Z,8.18
2022-08-26T11:07:27.568Z,8.23
2022-08-26T11:09:56.243Z,7.75
2022-08-26T11:12:42.853Z,7.43
2022-08-26T11:15:12.486Z,9.02
2022-08-26T11:18:07.535Z,6.95
2022-08-26T11:20:37.470Z,7.57
2022-08-26T11:23:28.992Z,8.23
2022-08-26T11:26:43.177Z,7.57
2022-08-26T11:29:13.542Z,7.15
2022-08-26T11:31:57.758Z,11.75
2022-08-26T11:34:54.133Z,8.13
2022-08-26T11:37:23.603Z,7.53
2022-08-26T11:39:56.863Z,8.23
2022-08-26T11:42:30.437Z,8.32
2022-08-26T11:44:59.324Z,7.93
2022-08-26T11:47:32.109Z,7.25
2022-08-26T11:50:11.891Z,8.25
2022-08-26T11:52:39.774Z,7.75
2022-08-26T11:55:08.841Z,7.28
2022-08-26T11:57:41.934Z,8.15
2022-08-26T12:00:13.532Z,7.32
2022-08-26T12:02:43.249Z,7.13
2022-08-26T12:05:15.099Z,9.23
2022-08-26T12:07:42.917Z,7.82
2022-08-26T12:10:14.493Z,7.10
2022-08-26T12:12:42.781Z,6.18
2022-08-26T12:15:13.770Z,6.85
2022-08-26T12:17:42.161Z,6.38
2022-08-26T12:20:20.970Z,7.07
2022-08-26T12:22:48.761Z,7.72
2022-08-26T12:25:23.161Z,7.78
2022-08-26T12:27:53.803Z,7.80
2022-08-26T12:30:32.036Z,7.13
2022-08-26T12:33:08.067Z,7.82
2022-08-26T12:35:56.548Z,7.82
2022-08-26T12:38:25.559Z,6.97
2022-08-26T12:40:53.651Z,6.85
2022-08-26T12:43:36.337Z,6.97
2022-08-26T12:48:36.303Z,7.07
2022-08-26T12:51:07.550Z,7.32
2022-08-26T12:53:36.382Z,7.20
2022-08-26T12:56:06.066Z,7.88
2022-08-26T12:58:36.035Z,6.97
2022-08-26T13:01:20.224Z,6.80
2022-08-26T13:03:48.490Z,7.40
2022-08-26T13:06:27.900Z,7.57
2022-08-26T13:08:56.940Z,7.10
2022-08-26T13:11:26.664Z,6.82
2022-08-26T13:13:57.487Z,6.75
2022-08-26T13:16:25.911Z,6.60
2022-08-26T13:18:54.653Z,7.22
2022-08-26T13:21:23.244Z,6.78
2022-08-26T13:23:52.770Z,6.57
2022-08-26T13:26:21.514Z,6.00
2022-08-26T13:29:01.177Z,5.22
2022-08-26T13:31:32.900Z,5.35
2022-08-26T13:34:01.529Z,4.93
2022-08-26T13:36:29.420Z,4.72
2022-08-26T13:38:58.983Z,4.82
2022-08-26T13:41:29.184Z,5.07
2022-08-26T13:43:59.899Z,5.18
2022-08-26T13:46:28.140Z,5.28
2022-08-26T13:48:56.180Z,5.40
2022-08-26T13:51:24.017Z,6.13
2022-08-26T13:53:52.089Z,5.45
2022-08-26T13:56:23.773Z,6.00
2022-08-26T13:58:51.545Z,5.17
2022-08-26T14:01:19.648Z,5.18
2022-08-26T14:03:47.483Z,4.00
2022-08-26T14:06:15.688Z,5.38
2022-08-26T14:08:44.055Z,4.38
2022-08-26T14:11:12.065Z,4.78
2022-08-26T14:13:41.188Z,5.68
2022-08-26T14:16:11.071Z,4.20
2022-08-26T14:18:43.649Z,4.80
2022-08-26T14:21:14.443Z,5.07
2022-08-26T14:23:42.340Z,4.65
2022-08-26T14:26:10.988Z,4.53
2022-08-26T14:28:50.404Z,4.00
2022-08-26T14:31:18.326Z,5.05
2022-08-26T14:33:46.264Z,4.97
2022-08-26T14:36:29.071Z,6.05
2022-08-26T14:41:25.396Z,5.68
2022-08-26T14:43:59.980Z,4.53
2022-08-26T14:46:29.347Z,4.72
2022-08-26T14:49:01.560Z,5.00
2022-08-26T14:51:30.198Z,5.07
2022-08-26T14:54:12.866Z,5.32
2022-08-26T14:56:42.828Z,5.18
2022-08-26T14:59:12.297Z,5.68
2022-08-26T15:01:41.050Z,6.93
2022-08-26T15:04:09.592Z,6.40
2022-08-26T15:06:38.226Z,5.25
2022-08-26T15:09:06.855Z,5.47
2022-08-26T15:11:35.591Z,5.50
2022-08-26T15:14:03.554Z,6.00
2022-08-26T15:16:33.324Z,5.40
2022-08-26T15:19:04.212Z,6.13
2022-08-26T15:21:32.451Z,8.75
2022-08-26T15:24:01.228Z,10.18
2022-08-26T15:26:30.184Z,7.80
2022-08-26T15:29:00.808Z,5.38
2022-08-26T15:31:34.433Z,5.65
2022-08-26T15:34:04.964Z,3.60
2022-08-26T15:36:35.866Z,4.15
2022-08-26T15:39:05.106Z,6.43
2022-08-26T15:41:34.966Z,5.40
2022-08-26T15:44:03.447Z,4.82
2022-08-26T15:46:33.843Z,4.63
2022-08-26T15:49:03.746Z,4.37
2022-08-26T15:51:33.315Z,4.50
2022-08-26T15:54:14.364Z,4.68
2022-08-26T15:56:47.940Z,5.32
2022-08-26T15:59:16.343Z,4.55
2022-08-26T16:01:46.001Z,5.38
2022-08-26T16:04:17.036Z,5.18
2022-08-26T16:06:51.490Z,5.30
2022-08-26T16:09:21.232Z,6.28
2022-08-26T16:11:49.731Z,5.88
2022-08-26T16:14:32.450Z,4.65
2022-08-26T16:17:50.670Z,6.28
2022-08-26T16:20:23.185Z,4.80
2022-08-26T16:22:51.283Z,4.53
2022-08-26T16:25:19.711Z,4.38
2022-08-26T16:27:48.132Z,4.70
2022-08-26T16:30:16.368Z,4.50
2022-08-26T16:32:45.699Z,4.97
2022-08-26T16:35:13.555Z,5.03
2022-08-26T16:37:42.222Z,4.90
2022-08-26T16:40:10.566Z,4.45
2022-08-26T16:42:38.946Z,4.68
2022-08-26T16:45:07.536Z,4.82
2022-08-26T16:47:35.397Z,4.45
2022-08-26T16:50:04.877Z,4.68
2022-08-26T16:52:32.675Z,4.65
2022-08-26T16:55:01.100Z,4.68
2022-08-26T16:57:28.925Z,5.32
2022-08-26T16:59:57.015Z,5.38
2022-08-26T17:02:24.951Z,4.97
2022-08-26T17:04:53.405Z,5.40
2022-08-26T17:07:22.583Z,5.53
2022-08-26T17:09:50.425Z,5.20
2022-08-26T17:12:18.784Z,5.35
2022-08-26T17:14:46.576Z,4.75
2022-08-26T17:17:14.618Z,5.88
2022-08-26T17:19:47.246Z,5.47
2022-08-26T17:22:18.079Z,4.68
2022-08-26T17:24:47.309Z,5.40
2022-08-26T17:27:15.225Z,6.25
2022-08-26T17:29:43.027Z,5.97
2022-08-26T17:32:10.780Z,4.72
2022-08-26T17:34:38.780Z,3.80
2022-08-26T17:37:06.616Z,4.32
2022-08-26T17:39:34.701Z,4.75
2022-08-26T17:42:03.919Z,5.53
2022-08-26T17:44:31.774Z,5.78
2022-08-26T17:47:00.143Z,4.45
2022-08-26T17:49:28.243Z,4.72
2022-08-26T17:51:58.679Z,4.63
2022-08-26T17:54:27.523Z,5.25
2022-08-26T17:56:57.949Z,5.45
2022-08-26T17:59:30.646Z,5.88
2022-08-26T18:01:59.590Z,5.47
2022-08-26T18:04:27.522Z,6.43
2022-08-26T18:06:55.339Z,6.13
2022-08-26T18:09:23.078Z,6.57
2022-08-26T18:11:50.863Z,5.93
2022-08-26T18:14:19.115Z,6.40
2022-08-26T18:16:48.292Z,5.47
2022-08-26T18:19:16.061Z,5.38
2022-08-26T18:21:43.905Z,5.88
2022-08-26T18:24:13.998Z,6.15
2022-08-26T18:26:47.915Z,6.45
2022-08-26T18:29:16.782Z,6.05
2022-08-26T18:31:44.594Z,6.50
2022-08-26T18:34:15.498Z,6.65
2022-08-26T18:36:43.731Z,6.57
2022-08-26T18:39:12.513Z,7.57
2022-08-26T18:41:42.585Z,6.35
2022-08-26T18:44:13.624Z,7.43
2022-08-26T18:46:42.205Z,6.00
2022-08-26T18:49:11.487Z,6.70
2022-08-26T18:51:40.740Z,6.18
2022-08-26T18:54:08.850Z,6.53
2022-08-26T18:56:37.353Z,6.82
2022-08-26T18:59:06.283Z,6.50
2022-08-26T19:01:34.837Z,6.07
2022-08-26T19:04:04.678Z,5.72
2022-08-26T19:06:35.585Z,6.60
2022-08-26T19:09:05.339Z,6.47
2022-08-26T19:11:37.398Z,5.40
2022-08-26T19:14:13.530Z,6.78
2022-08-26T19:16:42.075Z,6.45
2022-08-26T19:19:10.173Z,6.95
2022-08-26T19:21:38.311Z,6.35
2022-08-26T19:24:09.679Z,6.88
2022-08-26T19:26:38.939Z,6.82
2022-08-26T19:29:06.763Z,7.25
2022-08-26T19:31:34.829Z,6.60
2022-08-26T19:34:02.634Z,6.45
2022-08-26T19:36:31.459Z,7.00
2022-08-26T19:39:00.369Z,6.40
2022-08-26T19:41:36.531Z,6.88
2022-08-26T19:44:06.534Z,6.32
2022-08-26T19:46:34.772Z,6.00
2022-08-26T19:49:05.345Z,6.47
2022-08-26T19:51:34.639Z,6.95
2022-08-26T19:54:02.404Z,7.03
2022-08-26T19:56:31.774Z,7.25
2022-08-26T19:59:00.530Z,6.85
2022-08-26T20:01:31.674Z,6.82
2022-08-26T20:03:59.547Z,6.55
2022-08-26T20:06:27.401Z,7.57
2022-08-26T20:08:56.348Z,7.72
2022-08-26T20:11:24.890Z,7.53
2022-08-26T20:13:54.383Z,7.30
2022-08-26T20:16:22.224Z,7.40
2022-08-26T20:19:07.691Z,8.00
2022-08-26T20:21:38.041Z,6.70
2022-08-26T20:24:07.413Z,7.57
2022-08-26T20:26:38.736Z,7.43
2022-08-26T20:29:08.920Z,7.38
2022-08-26T20:31:37.177Z,8.27
2022-08-26T20:34:05.455Z,8.60
2022-08-26T20:36:34.026Z,7.35
2022-08-26T20:39:03.827Z,7.85
2022-08-26T20:41:32.094Z,8.82
2022-08-26T20:44:00.433Z,8.00
2022-08-26T20:46:29.570Z,9.50
2022-08-26T20:48:57.709Z,8.45
2022-08-26T20:51:26.090Z,8.90
2022-08-26T20:53:53.967Z,10.30
2022-08-26T20:56:24.398Z,11.00
2022-08-26T20:58:53.395Z,9.75
2022-08-26T21:01:22.963Z,9.32
2022-08-26T21:03:53.128Z,9.65
2022-08-26T21:06:21.289Z,10.63
2022-08-26T21:08:49.070Z,11.70
2022-08-26T21:11:18.433Z,10.30
2022-08-26T21:14:04.371Z,11.43
2022-08-26T21:16:32.585Z,9.63
2022-08-26T21:19:01.920Z,9.90
2022-08-26T21:21:29.972Z,10.88
2022-08-26T21:23:58.028Z,9.77
2022-08-26T21:26:26.102Z,9.43
2022-08-26T21:28:55.692Z,10.20
2022-08-26T21:31:24.060Z,9.57
2022-08-26T21:33:52.608Z,9.57
2022-08-26T21:36:21.711Z,9.50
2022-08-26T21:38:49.563Z,9.35
2022-08-26T21:41:19.285Z,10.70
2022-08-26T21:43:48.222Z,10.05
2022-08-26T21:46:16.738Z,9.35
2022-08-26T21:48:48.825Z,9.35
2022-08-26T21:51:19.231Z,10.48
2022-08-26T21:53:48.736Z,10.57
2022-08-26T21:56:18.449Z,12.00
2022-08-26T21:58:46.509Z,10.50
2022-08-26T22:01:15.896Z,9.50
2022-08-26T22:03:47.075Z,9.70
2022-08-26T22:06:16.682Z,9.20
2022-08-26T22:08:44.689Z,11.10
2022-08-26T22:11:14.246Z,9.77
2022-08-26T22:13:43.053Z,10.60
2022-08-26T22:16:11.360Z,10.30
2022-08-26T22:18:39.530Z,9.80
2022-08-26T22:21:08.632Z,10.02
2022-08-26T22:23:37.024Z,8.98
2022-08-26T22:26:05.532Z,9.23
2022-08-26T22:28:35.108Z,9.93
2022-08-26T22:31:02.895Z,8.70
2022-08-26T22:33:31.050Z,9.20
2022-08-26T22:35:58.857Z,8.73
2022-08-26T22:38:26.842Z,8.18
2022-08-26T22:40:56.839Z,7.53
2022-08-26T22:43:25.299Z,7.65
2022-08-26T22:45:55.614Z,7.80
2022-08-26T22:48:24.495Z,7.60
2022-08-26T22:50:57.146Z,7.97
2022-08-26T22:53:27.704Z,8.05
2022-08-26T22:55:55.467Z,8.27
2022-08-26T22:58:30.402Z,9.48
2022-08-26T23:01:00.395Z,9.23
2022-08-26T23:03:28.580Z,8.70
2022-08-26T23:05:56.502Z,9.75
2022-08-26T23:08:25.103Z,7.93
2022-08-26T23:10:53.296Z,7.97
2022-08-26T23:13:21.839Z,8.50
2022-08-26T23:15:49.575Z,7.75
2022-08-26T23:18:18.954Z,9.18
2022-08-26T23:20:46.933Z,7.55
2022-08-26T23:23:15.036Z,8.02
2022-08-26T23:25:42.779Z,8.15
2022-08-26T23:28:12.217Z,9.15
2022-08-26T23:30:40.052Z,7.63
2022-08-26T23:33:08.130Z,8.00
2022-08-26T23:35:36.480Z,7.57
2022-08-26T23:38:06.248Z,10.40
2022-08-26T23:40:37.770Z,8.45
2022-08-26T23:43:07.566Z,7.88
2022-08-26T23:45:35.952Z,7.50
2022-08-26T23:48:04.356Z,7.38
2022-08-26T23:50:46.251Z,8.13
2022-08-26T23:53:19.601Z,7.85
2022-08-26T23:55:49.017Z,7.78
2022-08-26T23:58:17.656Z,8.43
